EKYT/AAL METAR and TAF weather

Enter ICAO airport designator
Station Type Date Time Source
EKYT METAR 2018/04/19 13:20 UTC NOAA

EKYT 191320Z AUTO 10010KT 9999NDV NCD 19/13 Q1030


Station Type Date Time Source
EKYT Decoded METAR 2018/04/19 13:20 UTC NOAA

Aalborg, Denmark (EKYT) 57-06N 009-51E 13M
Apr 19, 2018 - 09:20 AM EDT / 2018.04.19 1320 UTC
Wind: from the E (100 degrees) at 12 MPH (10 KT):0
Temperature: 66 F (19 C)
Dew Point: 55 F (13 C)
Relative Humidity: 68%
Pressure (altimeter): 30.42 in. Hg (1030 hPa)
ob: EKYT 191320Z AUTO 10010KT 9999NDV NCD 19/13 Q1030
cycle: 13

Station Type Date Time Source
EKYT TAF 2018/04/19 12:15 UTC NOAA

TAF TAF EKYT 191102Z 1912/2012 23005KT 9999 FEW200
BECMG 1912/1915 18008KT PROB40 2000/2006 3000 BR


Example: see airport list